sensor_id;sensor_type;location;lat;lon;timestamp;pressure;altitude;pressure_sealevel;temperature;humidity
69153;BME280;56261;51.580;4.578;2023-03-26T00:01:25;100828.31;;;7.66;100.00
69153;BME280;56261;51.580;4.578;2023-03-26T00:03:52;100833.66;;;7.56;100.00
69153;BME280;56261;51.580;4.578;2023-03-26T00:06:24;100838.47;;;7.53;100.00
69153;BME280;56261;51.580;4.578;2023-03-26T00:08:51;100842.91;;;7.52;100.00
69153;BME280;56261;51.580;4.578;2023-03-26T00:11:18;100833.75;;;7.46;100.00
69153;BME280;56261;51.580;4.578;2023-03-26T00:13:44;100835.72;;;7.44;100.00
69153;BME280;56261;51.580;4.578;2023-03-26T00:16:12;100832.13;;;7.36;100.00
69153;BME280;56261;51.580;4.578;2023-03-26T00:18:39;100836.84;;;7.42;100.00
69153;BME280;56261;51.580;4.578;2023-03-26T00:21:08;100837.38;;;7.45;100.00
69153;BME280;56261;51.580;4.578;2023-03-26T00:23:35;100835.84;;;7.43;100.00
69153;BME280;56261;51.580;4.578;2023-03-26T00:26:02;100826.38;;;7.40;100.00
69153;BME280;56261;51.580;4.578;2023-03-26T00:28:28;100827.81;;;7.35;100.00
69153;BME280;56261;51.580;4.578;2023-03-26T00:31:02;100816.75;;;7.39;100.00
69153;BME280;56261;51.580;4.578;2023-03-26T00:33:28;100824.16;;;7.36;100.00
69153;BME280;56261;51.580;4.578;2023-03-26T00:35:57;100809.25;;;7.35;100.00
69153;BME280;56261;51.580;4.578;2023-03-26T00:38:26;100810.91;;;7.36;100.00
69153;BME280;56261;51.580;4.578;2023-03-26T00:40:51;100824.63;;;7.31;100.00
69153;BME280;56261;51.580;4.578;2023-03-26T00:43:18;100810.91;;;7.36;100.00
69153;BME280;56261;51.580;4.578;2023-03-26T00:45:54;100804.53;;;7.28;100.00
69153;BME280;56261;51.580;4.578;2023-03-26T00:48:21;100814.06;;;7.21;100.00
69153;BME280;56261;51.580;4.578;2023-03-26T00:50:47;100805.94;;;7.23;100.00
69153;BME280;56261;51.580;4.578;2023-03-26T00:53:14;100799.44;;;7.17;100.00
69153;BME280;56261;51.580;4.578;2023-03-26T00:55:41;100796.22;;;7.14;100.00
69153;BME280;56261;51.580;4.578;2023-03-26T00:58:07;100788.19;;;7.05;100.00
69153;BME280;56261;51.580;4.578;2023-03-26T01:00:41;100780.84;;;6.99;100.00
69153;BME280;56261;51.580;4.578;2023-03-26T01:03:11;100782.66;;;6.99;100.00
69153;BME280;56261;51.580;4.578;2023-03-26T01:08:18;100786.59;;;6.95;100.00
69153;BME280;56261;51.580;4.578;2023-03-26T01:10:48;100779.78;;;6.82;100.00
69153;BME280;56261;51.580;4.578;2023-03-26T01:13:17;100773.06;;;6.88;100.00
69153;BME280;56261;51.580;4.578;2023-03-26T01:15:44;100770.25;;;6.90;100.00
69153;BME280;56261;51.580;4.578;2023-03-26T01:18:16;100765.66;;;6.92;100.00
69153;BME280;56261;51.580;4.578;2023-03-26T01:20:42;100750.16;;;6.97;100.00
69153;BME280;56261;51.580;4.578;2023-03-26T01:23:11;100746.13;;;6.93;100.00
69153;BME280;56261;51.580;4.578;2023-03-26T01:25:44;100740.38;;;6.97;100.00
69153;BME280;56261;51.580;4.578;2023-03-26T01:28:14;100729.38;;;6.92;100.00
69153;BME280;56261;51.580;4.578;2023-03-26T01:30:49;100736.66;;;6.90;100.00
69153;BME280;56261;51.580;4.578;2023-03-26T01:33:41;100738.31;;;6.91;100.00
69153;BME280;56261;51.580;4.578;2023-03-26T01:36:36;100736.72;;;6.98;100.00
69153;BME280;56261;51.580;4.578;2023-03-26T01:39:13;100729.53;;;6.91;100.00
69153;BME280;56261;51.580;4.578;2023-03-26T01:42:05;100728.06;;;6.96;100.00
69153;BME280;56261;51.580;4.578;2023-03-26T01:44:42;100724.91;;;6.93;100.00
69153;BME280;56261;51.580;4.578;2023-03-26T01:47:11;100713.84;;;6.97;100.00
69153;BME280;56261;51.580;4.578;2023-03-26T01:49:37;100709.25;;;6.99;100.00
69153;BME280;56261;51.580;4.578;2023-03-26T01:52:09;100684.56;;;6.99;100.00
69153;BME280;56261;51.580;4.578;2023-03-26T01:54:37;100695.06;;;7.09;100.00
69153;BME280;56261;51.580;4.578;2023-03-26T02:02:34;100682.88;;;7.16;100.00
69153;BME280;56261;51.580;4.578;2023-03-26T02:05:16;100685.06;;;7.20;100.00
69153;BME280;56261;51.580;4.578;2023-03-26T02:10:26;100663.09;;;7.28;100.00
69153;BME280;56261;51.580;4.578;2023-03-26T02:12:52;100672.56;;;7.31;100.00
69153;BME280;56261;51.580;4.578;2023-03-26T02:15:18;100672.41;;;7.32;100.00
69153;BME280;56261;51.580;4.578;2023-03-26T02:17:44;100678.34;;;7.26;100.00
69153;BME280;56261;51.580;4.578;2023-03-26T02:20:12;100663.09;;;7.28;100.00
69153;BME280;56261;51.580;4.578;2023-03-26T02:22:39;100667.03;;;7.42;100.00
69153;BME280;56261;51.580;4.578;2023-03-26T02:25:07;100661.03;;;7.40;100.00
69153;BME280;56261;51.580;4.578;2023-03-26T02:27:34;100663.47;;;7.33;100.00
69153;BME280;56261;51.580;4.578;2023-03-26T02:30:00;100662.31;;;7.36;100.00
69153;BME280;56261;51.580;4.578;2023-03-26T02:32:26;100651.34;;;7.31;100.00
69153;BME280;56261;51.580;4.578;2023-03-26T02:34:52;100646.03;;;7.48;100.00
69153;BME280;56261;51.580;4.578;2023-03-26T02:37:17;100648.00;;;7.46;100.00
69153;BME280;56261;51.580;4.578;2023-03-26T02:39:43;100635.44;;;7.57;100.00
69153;BME280;56261;51.580;4.578;2023-03-26T02:42:09;100626.88;;;7.63;100.00
69153;BME280;56261;51.580;4.578;2023-03-26T02:44:34;100630.66;;;7.60;100.00
69153;BME280;56261;51.580;4.578;2023-03-26T02:47:00;100620.06;;;7.60;100.00
69153;BME280;56261;51.580;4.578;2023-03-26T02:49:25;100617.63;;;7.67;100.00
69153;BME280;56261;51.580;4.578;2023-03-26T02:51:51;100607.81;;;7.67;100.00
69153;BME280;56261;51.580;4.578;2023-03-26T02:54:20;100609.19;;;7.72;100.00
69153;BME280;56261;51.580;4.578;2023-03-26T02:56:46;100604.00;;;7.70;100.00
69153;BME280;56261;51.580;4.578;2023-03-26T02:59:11;100598.63;;;7.80;100.00
69153;BME280;56261;51.580;4.578;2023-03-26T03:01:38;100594.06;;;7.72;100.00
69153;BME280;56261;51.580;4.578;2023-03-26T03:04:11;100586.50;;;7.77;100.00
69153;BME280;56261;51.580;4.578;2023-03-26T03:06:37;100588.63;;;7.74;100.00
69153;BME280;56261;51.580;4.578;2023-03-26T03:09:04;100583.09;;;7.67;100.00
69153;BME280;56261;51.580;4.578;2023-03-26T03:11:30;100576.63;;;7.61;100.00
69153;BME280;56261;51.580;4.578;2023-03-26T03:13:55;100581.69;;;7.81;100.00
69153;BME280;56261;51.580;4.578;2023-03-26T03:16:20;100566.44;;;7.83;100.00
69153;BME280;56261;51.580;4.578;2023-03-26T03:18:46;100575.69;;;7.79;100.00
69153;BME280;56261;51.580;4.578;2023-03-26T03:21:21;100561.53;;;7.62;100.00
69153;BME280;56261;51.580;4.578;2023-03-26T03:23:47;100566.38;;;7.75;100.00
69153;BME280;56261;51.580;4.578;2023-03-26T03:26:15;100558.66;;;7.89;100.00
69153;BME280;56261;51.580;4.578;2023-03-26T03:28:41;100566.56;;;7.81;100.00
69153;BME280;56261;51.580;4.578;2023-03-26T03:31:06;100554.97;;;7.82;100.00
69153;BME280;56261;51.580;4.578;2023-03-26T03:33:33;100549.06;;;7.97;100.00
69153;BME280;56261;51.580;4.578;2023-03-26T03:35:59;100548.56;;;7.93;100.00
69153;BME280;56261;51.580;4.578;2023-03-26T03:38:25;100535.97;;;7.95;100.00
69153;BME280;56261;51.580;4.578;2023-03-26T03:40:50;100536.97;;;8.02;100.00
69153;BME280;56261;51.580;4.578;2023-03-26T03:43:18;100526.03;;;8.05;100.00
69153;BME280;56261;51.580;4.578;2023-03-26T03:45:44;100518.03;;;7.97;100.00
69153;BME280;56261;51.580;4.578;2023-03-26T03:48:09;100511.00;;;7.88;100.00
69153;BME280;56261;51.580;4.578;2023-03-26T03:50:35;100521.69;;;7.96;100.00
69153;BME280;56261;51.580;4.578;2023-03-26T03:53:00;100516.41;;;8.04;100.00
69153;BME280;56261;51.580;4.578;2023-03-26T03:55:25;100513.41;;;8.07;100.00
69153;BME280;56261;51.580;4.578;2023-03-26T03:57:52;100502.47;;;8.10;100.00
69153;BME280;56261;51.580;4.578;2023-03-26T04:00:18;100490.50;;;8.06;100.00
69153;BME280;56261;51.580;4.578;2023-03-26T04:02:44;100494.16;;;8.05;100.00
69153;BME280;56261;51.580;4.578;2023-03-26T04:05:10;100495.34;;;8.11;100.00
69153;BME280;56261;51.580;4.578;2023-03-26T04:07:36;100491.84;;;8.10;100.00
69153;BME280;56261;51.580;4.578;2023-03-26T04:10:02;100490.19;;;8.09;100.00
69153;BME280;56261;51.580;4.578;2023-03-26T04:12:28;100480.22;;;8.11;100.00
69153;BME280;56261;51.580;4.578;2023-03-26T04:14:55;100478.06;;;8.07;100.00
69153;BME280;56261;51.580;4.578;2023-03-26T04:17:21;100471.94;;;8.06;100.00
69153;BME280;56261;51.580;4.578;2023-03-26T04:19:47;100469.94;;;8.08;100.00
69153;BME280;56261;51.580;4.578;2023-03-26T04:22:13;100469.94;;;8.08;100.00
69153;BME280;56261;51.580;4.578;2023-03-26T04:24:38;100456.47;;;8.10;100.00
69153;BME280;56261;51.580;4.578;2023-03-26T04:27:08;100456.00;;;8.06;100.00
69153;BME280;56261;51.580;4.578;2023-03-26T04:29:39;100451.66;;;8.05;100.00
69153;BME280;56261;51.580;4.578;2023-03-26T04:32:11;100452.47;;;8.06;100.00
69153;BME280;56261;51.580;4.578;2023-03-26T04:34:37;100444.50;;;8.06;100.00
69153;BME280;56261;51.580;4.578;2023-03-26T04:37:04;100445.53;;;8.13;100.00
69153;BME280;56261;51.580;4.578;2023-03-26T04:39:29;100436.06;;;8.10;100.00
69153;BME280;56261;51.580;4.578;2023-03-26T04:41:58;100433.44;;;8.10;100.00
69153;BME280;56261;51.580;4.578;2023-03-26T04:44:24;100419.13;;;8.03;100.00
69153;BME280;56261;51.580;4.578;2023-03-26T04:46:50;100423.13;;;8.16;100.00
69153;BME280;56261;51.580;4.578;2023-03-26T04:49:17;100419.97;;;8.12;100.00
69153;BME280;56261;51.580;4.578;2023-03-26T04:51:43;100411.16;;;8.03;100.00
69153;BME280;56261;51.580;4.578;2023-03-26T04:54:12;100411.16;;;8.03;100.00
69153;BME280;56261;51.580;4.578;2023-03-26T04:59:03;100412.19;;;8.10;100.00
69153;BME280;56261;51.580;4.578;2023-03-26T05:01:28;100405.84;;;8.11;100.00
69153;BME280;56261;51.580;4.578;2023-03-26T05:03:55;100402.22;;;8.21;100.00
69153;BME280;56261;51.580;4.578;2023-03-26T05:06:23;100396.56;;;8.07;100.00
69153;BME280;56261;51.580;4.578;2023-03-26T05:08:50;100387.59;;;8.08;100.00
69153;BME280;56261;51.580;4.578;2023-03-26T05:11:15;100388.59;;;8.16;100.00
69153;BME280;56261;51.580;4.578;2023-03-26T05:13:40;100392.75;;;8.18;100.00
69153;BME280;56261;51.580;4.578;2023-03-26T05:16:08;100381.44;;;8.08;100.00
69153;BME280;56261;51.580;4.578;2023-03-26T05:18:33;100382.28;;;8.08;100.00
69153;BME280;56261;51.580;4.578;2023-03-26T05:20:59;100389.91;;;8.03;100.00
69153;BME280;56261;51.580;4.578;2023-03-26T05:23:24;100377.47;;;8.20;100.00
69153;BME280;56261;51.580;4.578;2023-03-26T05:25:50;100369.00;;;8.17;100.00
69153;BME280;56261;51.580;4.578;2023-03-26T05:28:16;100379.13;;;8.21;100.00
69153;BME280;56261;51.580;4.578;2023-03-26T05:30:43;100365.84;;;8.13;100.00
69153;BME280;56261;51.580;4.578;2023-03-26T05:33:09;100369.66;;;8.02;100.00
69153;BME280;56261;51.580;4.578;2023-03-26T05:35:34;100365.69;;;8.06;100.00
69153;BME280;56261;51.580;4.578;2023-03-26T05:38:00;100368.00;;;8.09;100.00
69153;BME280;56261;51.580;4.578;2023-03-26T05:40:26;100365.34;;;8.09;100.00
69153;BME280;56261;51.580;4.578;2023-03-26T05:42:51;100360.03;;;8.09;100.00
69153;BME280;56261;51.580;4.578;2023-03-26T05:45:17;100352.41;;;8.06;100.00
69153;BME280;56261;51.580;4.578;2023-03-26T05:47:42;100343.78;;;8.04;100.00
69153;BME280;56261;51.580;4.578;2023-03-26T05:50:08;100350.56;;;7.99;100.00
69153;BME280;56261;51.580;4.578;2023-03-26T05:52:34;100344.75;;;8.11;100.00
69153;BME280;56261;51.580;4.578;2023-03-26T05:55:00;100345.78;;;8.10;100.00
69153;BME280;56261;51.580;4.578;2023-03-26T05:57:28;100335.31;;;7.93;100.00
69153;BME280;56261;51.580;4.578;2023-03-26T05:59:54;100330.47;;;7.80;100.00
69153;BME280;56261;51.580;4.578;2023-03-26T06:02:21;100333.09;;;7.63;100.00
69153;BME280;56261;51.580;4.578;2023-03-26T06:04:47;100336.91;;;7.53;100.00
69153;BME280;56261;51.580;4.578;2023-03-26T06:07:12;100327.13;;;7.53;100.00
69153;BME280;56261;51.580;4.578;2023-03-26T06:09:38;100320.81;;;7.46;100.00
69153;BME280;56261;51.580;4.578;2023-03-26T06:12:08;100322.63;;;7.54;100.00
69153;BME280;56261;51.580;4.578;2023-03-26T06:14:34;100315.31;;;7.47;100.00
69153;BME280;56261;51.580;4.578;2023-03-26T06:17:00;100316.81;;;7.42;100.00
69153;BME280;56261;51.580;4.578;2023-03-26T06:19:26;100315.19;;;7.57;100.00
69153;BME280;56261;51.580;4.578;2023-03-26T06:21:51;100308.41;;;7.71;100.00
69153;BME280;56261;51.580;4.578;2023-03-26T06:24:16;100304.22;;;7.52;100.00
69153;BME280;56261;51.580;4.578;2023-03-26T06:26:44;100305.72;;;7.46;100.00
69153;BME280;56261;51.580;4.578;2023-03-26T06:29:10;100306.53;;;7.47;100.00
69153;BME280;56261;51.580;4.578;2023-03-26T06:31:36;100308.38;;;7.55;100.00
69153;BME280;56261;51.580;4.578;2023-03-26T06:34:01;100313.69;;;7.63;100.00
69153;BME280;56261;51.580;4.578;2023-03-26T06:36:26;100316.34;;;7.63;100.00
69153;BME280;56261;51.580;4.578;2023-03-26T06:38:52;100324.97;;;7.65;100.00
69153;BME280;56261;51.580;4.578;2023-03-26T06:41:17;100324.00;;;7.74;100.00
69153;BME280;56261;51.580;4.578;2023-03-26T06:43:43;100326.16;;;7.79;100.00
69153;BME280;56261;51.580;4.578;2023-03-26T06:46:09;100323.31;;;7.72;100.00
69153;BME280;56261;51.580;4.578;2023-03-26T06:48:34;100320.34;;;7.67;100.00
69153;BME280;56261;51.580;4.578;2023-03-26T06:51:00;100319.50;;;7.66;100.00
69153;BME280;56261;51.580;4.578;2023-03-26T06:53:25;100322.50;;;7.72;100.00
69153;BME280;56261;51.580;4.578;2023-03-26T06:55:52;100316.69;;;7.68;100.00
69153;BME280;56261;51.580;4.578;2023-03-26T06:58:18;100324.16;;;7.81;100.00
69153;BME280;56261;51.580;4.578;2023-03-26T07:00:44;100321.88;;;7.86;100.00
69153;BME280;56261;51.580;4.578;2023-03-26T07:03:09;100318.72;;;7.90;100.00
69153;BME280;56261;51.580;4.578;2023-03-26T07:05:36;100318.88;;;7.89;100.00
69153;BME280;56261;51.580;4.578;2023-03-26T07:08:01;100312.56;;;7.82;100.00
69153;BME280;56261;51.580;4.578;2023-03-26T07:10:27;100309.56;;;7.77;100.00
69153;BME280;56261;51.580;4.578;2023-03-26T07:12:52;100317.84;;;7.74;100.00
69153;BME280;56261;51.580;4.578;2023-03-26T07:15:18;100308.88;;;7.75;100.00
69153;BME280;56261;51.580;4.578;2023-03-26T07:17:43;100308.91;;;7.83;100.00
69153;BME280;56261;51.580;4.578;2023-03-26T07:20:09;100307.75;;;7.77;100.00
69153;BME280;56261;51.580;4.578;2023-03-26T07:22:35;100300.25;;;7.64;100.00
69153;BME280;56261;51.580;4.578;2023-03-26T07:25:00;100314.34;;;7.65;100.00
69153;BME280;56261;51.580;4.578;2023-03-26T07:27:43;100307.38;;;7.56;100.00
69153;BME280;56261;51.580;4.578;2023-03-26T07:30:16;100302.56;;;7.51;100.00
69153;BME280;56261;51.580;4.578;2023-03-26T07:33:03;100301.41;;;7.54;100.00
69153;BME280;56261;51.580;4.578;2023-03-26T07:40:53;100295.28;;;7.61;100.00
69153;BME280;56261;51.580;4.578;2023-03-26T07:43:30;100294.97;;;7.64;100.00
69153;BME280;56261;51.580;4.578;2023-03-26T07:45:57;100296.28;;;7.60;100.00
69153;BME280;56261;51.580;4.578;2023-03-26T07:48:25;100289.31;;;7.67;100.00
69153;BME280;56261;51.580;4.578;2023-03-26T07:50:52;100287.66;;;7.66;100.00
69153;BME280;56261;51.580;4.578;2023-03-26T07:53:18;100285.31;;;7.63;100.00
69153;BME280;56261;51.580;4.578;2023-03-26T07:56:41;100288.31;;;7.85;100.00
69153;BME280;56261;51.580;4.578;2023-03-26T08:01:36;100286.03;;;7.82;100.00
69153;BME280;56261;51.580;4.578;2023-03-26T08:06:41;100282.34;;;7.75;100.00
69153;BME280;56261;51.580;4.578;2023-03-26T08:09:22;100286.31;;;7.54;100.00
69153;BME280;56261;51.580;4.578;2023-03-26T08:11:56;100281.84;;;7.55;100.00
69153;BME280;56261;51.580;4.578;2023-03-26T08:14:46;100289.28;;;7.51;100.00
69153;BME280;56261;51.580;4.578;2023-03-26T08:17:37;100284.16;;;7.74;100.00
69153;BME280;56261;51.580;4.578;2023-03-26T08:23:04;100286.34;;;7.95;100.00
69153;BME280;56261;51.580;4.578;2023-03-26T08:30:39;100290.81;;;7.95;100.00
69153;BME280;56261;51.580;4.578;2023-03-26T08:33:17;100284.00;;;8.00;100.00
69153;BME280;56261;51.580;4.578;2023-03-26T08:35:44;100282.66;;;8.13;100.00
69153;BME280;56261;51.580;4.578;2023-03-26T08:38:17;100283.16;;;8.16;100.00
69153;BME280;56261;51.580;4.578;2023-03-26T08:59:36;100271.88;;;8.22;100.00
69153;BME280;56261;51.580;4.578;2023-03-26T09:08:12;100271.38;;;8.27;100.00
69153;BME280;56261;51.580;4.578;2023-03-26T09:34:24;100266.63;;;8.78;100.00
69153;BME280;56261;51.580;4.578;2023-03-26T09:39:56;100279.34;;;8.43;100.00
69153;BME280;56261;51.580;4.578;2023-03-26T09:42:42;100272.53;;;8.16;100.00
69153;BME280;56261;51.580;4.578;2023-03-26T09:50:29;100286.50;;;8.10;100.00
69153;BME280;56261;51.580;4.578;2023-03-26T09:53:15;100287.66;;;8.07;100.00
69153;BME280;56261;51.580;4.578;2023-03-26T09:58:48;100297.63;;;8.05;100.00
69153;BME280;56261;51.580;4.578;2023-03-26T10:07:20;100292.16;;;7.90;100.00
69153;BME280;56261;51.580;4.578;2023-03-26T10:10:07;100299.44;;;7.64;100.00
69153;BME280;56261;51.580;4.578;2023-03-26T10:13:07;100297.63;;;7.81;100.00
69153;BME280;56261;51.580;4.578;2023-03-26T10:15:58;100303.91;;;7.88;100.00
69153;BME280;56261;51.580;4.578;2023-03-26T10:18:51;100303.25;;;7.94;100.00
69153;BME280;56261;51.580;4.578;2023-03-26T10:24:03;100307.25;;;8.23;100.00
69153;BME280;56261;51.580;4.578;2023-03-26T10:37:40;100313.25;;;8.08;100.00
69153;BME280;56261;51.580;4.578;2023-03-26T10:40:30;100323.50;;;8.11;100.00
69153;BME280;56261;51.580;4.578;2023-03-26T10:46:33;100327.81;;;8.13;100.00
69153;BME280;56261;51.580;4.578;2023-03-26T10:51:54;100339.94;;;8.23;100.00
69153;BME280;56261;51.580;4.578;2023-03-26T10:56:56;100339.28;;;8.21;100.00
69153;BME280;56261;51.580;4.578;2023-03-26T10:59:24;100346.28;;;8.47;100.00
69153;BME280;56261;51.580;4.578;2023-03-26T11:10:07;100349.91;;;8.46;100.00
69153;BME280;56261;51.580;4.578;2023-03-26T11:12:43;100348.78;;;8.48;100.00
69153;BME280;56261;51.580;4.578;2023-03-26T11:15:31;100357.56;;;8.49;100.00
69153;BME280;56261;51.580;4.578;2023-03-26T11:18:19;100351.06;;;8.60;100.00
69153;BME280;56261;51.580;4.578;2023-03-26T11:20:56;100349.88;;;8.70;100.00
69153;BME280;56261;51.580;4.578;2023-03-26T11:23:35;100355.19;;;8.70;100.00
69153;BME280;56261;51.580;4.578;2023-03-26T11:29:09;100361.00;;;8.66;100.00
69153;BME280;56261;51.580;4.578;2023-03-26T11:34:17;100370.19;;;8.55;100.00
69153;BME280;56261;51.580;4.578;2023-03-26T11:36:49;100370.16;;;8.80;100.00
69153;BME280;56261;51.580;4.578;2023-03-26T11:39:22;100373.78;;;8.79;100.00
69153;BME280;56261;51.580;4.578;2023-03-26T11:41:52;100365.50;;;8.73;100.00
69153;BME280;56261;51.580;4.578;2023-03-26T11:44:35;100375.97;;;8.59;100.00
69153;BME280;56261;51.580;4.578;2023-03-26T11:47:05;100377.97;;;8.65;100.00
69153;BME280;56261;51.580;4.578;2023-03-26T11:49:34;100385.59;;;8.68;100.00
69153;BME280;56261;51.580;4.578;2023-03-26T11:52:01;100381.31;;;8.59;100.00
69153;BME280;56261;51.580;4.578;2023-03-26T11:54:27;100392.75;;;8.67;100.00
69153;BME280;56261;51.580;4.578;2023-03-26T11:56:57;100390.28;;;8.49;100.00
69153;BME280;56261;51.580;4.578;2023-03-26T11:59:39;100392.13;;;8.49;100.00
69153;BME280;56261;51.580;4.578;2023-03-26T12:07:17;100406.19;;;8.82;100.00
69153;BME280;56261;51.580;4.578;2023-03-26T12:10:21;100404.00;;;8.86;100.00
69153;BME280;56261;51.580;4.578;2023-03-26T12:12:47;100404.88;;;8.78;100.00
69153;BME280;56261;51.580;4.578;2023-03-26T12:15:18;100410.69;;;8.73;100.00
69153;BME280;56261;51.580;4.578;2023-03-26T12:17:46;100416.34;;;8.70;100.00
69153;BME280;56261;51.580;4.578;2023-03-26T12:22:48;100411.22;;;8.69;100.00
69153;BME280;56261;51.580;4.578;2023-03-26T12:25:19;100410.00;;;8.96;100.00
69153;BME280;56261;51.580;4.578;2023-03-26T12:30:24;100418.06;;;9.19;100.00
69153;BME280;56261;51.580;4.578;2023-03-26T12:32:51;100408.72;;;9.31;100.00
69153;BME280;56261;51.580;4.578;2023-03-26T12:35:28;100404.59;;;9.29;100.00
69153;BME280;56261;51.580;4.578;2023-03-26T12:38:11;100418.88;;;9.28;100.00
69153;BME280;56261;51.580;4.578;2023-03-26T12:40:38;100419.91;;;9.19;100.00
69153;BME280;56261;51.580;4.578;2023-03-26T12:45:55;100427.38;;;9.15;100.00
69153;BME280;56261;51.580;4.578;2023-03-26T12:48:23;100418.06;;;9.19;100.00
69153;BME280;56261;51.580;4.578;2023-03-26T12:56:29;100430.19;;;9.30;100.00
69153;BME280;56261;51.580;4.578;2023-03-26T12:59:18;100420.44;;;9.53;100.00
69153;BME280;56261;51.580;4.578;2023-03-26T13:09:49;100452.88;;;9.01;100.00
69153;BME280;56261;51.580;4.578;2023-03-26T13:12:45;100449.72;;;8.81;100.00
69153;BME280;56261;51.580;4.578;2023-03-26T13:15:31;100465.56;;;8.66;100.00
69153;BME280;56261;51.580;4.578;2023-03-26T13:18:21;100468.84;;;8.52;100.00
69153;BME280;56261;51.580;4.578;2023-03-26T13:21:14;100474.84;;;8.54;100.00
69153;BME280;56261;51.580;4.578;2023-03-26T13:32:29;100483.66;;;8.71;100.00
69153;BME280;56261;51.580;4.578;2023-03-26T13:41:20;100504.53;;;8.41;100.00
69153;BME280;56261;51.580;4.578;2023-03-26T13:47:06;100516.66;;;7.85;100.00
69153;BME280;56261;51.580;4.578;2023-03-26T13:49:50;100521.69;;;7.96;100.00
69153;BME280;56261;51.580;4.578;2023-03-26T13:52:24;100529.97;;;7.93;100.00
69153;BME280;56261;51.580;4.578;2023-03-26T13:55:15;100528.81;;;7.96;100.00
69153;BME280;56261;51.580;4.578;2023-03-26T13:57:46;100535.09;;;7.95;100.00
69153;BME280;56261;51.580;4.578;2023-03-26T14:00:16;100534.41;;;7.84;100.00
69153;BME280;56261;51.580;4.578;2023-03-26T14:02:52;100543.59;;;7.98;100.00
69153;BME280;56261;51.580;4.578;2023-03-26T14:05:25;100538.44;;;7.97;100.00
69153;BME280;56261;51.580;4.578;2023-03-26T14:08:04;100540.97;;;8.15;100.00
69153;BME280;56261;51.580;4.578;2023-03-26T14:10:39;100548.28;;;8.13;100.00
69153;BME280;56261;51.580;4.578;2023-03-26T14:13:14;100551.69;;;8.39;100.00
69153;BME280;56261;51.580;4.578;2023-03-26T14:15:47;100557.41;;;8.44;100.00
69153;BME280;56261;51.580;4.578;2023-03-26T14:21:09;100558.81;;;8.39;100.00
69153;BME280;56261;51.580;4.578;2023-03-26T14:24:13;100565.38;;;8.52;100.00
69153;BME280;56261;51.580;4.578;2023-03-26T14:27:00;100564.56;;;8.60;100.00
69153;BME280;56261;51.580;4.578;2023-03-26T14:29:43;100568.19;;;8.59;100.00
69153;BME280;56261;51.580;4.578;2023-03-26T14:40:55;100588.50;;;8.18;100.00
69153;BME280;56261;51.580;4.578;2023-03-26T14:54:21;100622.19;;;8.51;100.00
69153;BME280;56261;51.580;4.578;2023-03-26T15:03:04;100631.13;;;8.50;100.00
69153;BME280;56261;51.580;4.578;2023-03-26T15:11:42;100641.78;;;8.50;100.00
69153;BME280;56261;51.580;4.578;2023-03-26T15:16:49;100655.25;;;8.49;100.00
69153;BME280;56261;51.580;4.578;2023-03-26T15:19:34;100665.06;;;8.57;100.00
69153;BME280;56261;51.580;4.578;2023-03-26T15:22:32;100682.97;;;8.46;100.00
69153;BME280;56261;51.580;4.578;2023-03-26T15:30:41;100690.44;;;8.43;100.00
69153;BME280;56261;51.580;4.578;2023-03-26T15:36:12;100705.63;;;8.32;100.00
69153;BME280;56261;51.580;4.578;2023-03-26T15:41:45;100707.16;;;8.35;100.00
69153;BME280;56261;51.580;4.578;2023-03-26T15:44:37;100718.75;;;8.34;100.00
69153;BME280;56261;51.580;4.578;2023-03-26T15:55:30;100726.03;;;8.32;100.00
69153;BME280;56261;51.580;4.578;2023-03-26T16:03:57;100760.91;;;8.29;100.00
69153;BME280;56261;51.580;4.578;2023-03-26T16:06:36;100756.44;;;8.29;100.00
69153;BME280;56261;51.580;4.578;2023-03-26T16:16:58;100786.41;;;7.96;100.00
69153;BME280;56261;51.580;4.578;2023-03-26T16:22:08;100796.03;;;7.97;100.00
69153;BME280;56261;51.580;4.578;2023-03-26T16:24:39;100809.94;;;7.90;100.00
69153;BME280;56261;51.580;4.578;2023-03-26T16:33:07;100813.34;;;7.83;100.00
69153;BME280;56261;51.580;4.578;2023-03-26T16:49:08;100859.03;;;7.68;100.00
69153;BME280;56261;51.580;4.578;2023-03-26T16:54:50;100886.16;;;7.62;100.00
69153;BME280;56261;51.580;4.578;2023-03-26T17:05:43;100909.91;;;7.36;100.00
69153;BME280;56261;51.580;4.578;2023-03-26T17:08:45;100920.38;;;7.38;100.00
69153;BME280;56261;51.580;4.578;2023-03-26T17:17:28;100937.31;;;7.27;100.00
69153;BME280;56261;51.580;4.578;2023-03-26T17:22:44;100951.16;;;7.21;100.00
69153;BME280;56261;51.580;4.578;2023-03-26T17:35:50;100979.53;;;7.01;100.00
69153;BME280;56261;51.580;4.578;2023-03-26T17:41:01;100987.91;;;6.96;100.00
69153;BME280;56261;51.580;4.578;2023-03-26T17:43:44;101003.31;;;6.93;100.00
69153;BME280;56261;51.580;4.578;2023-03-26T17:46:34;101013.06;;;6.92;100.00
69153;BME280;56261;51.580;4.578;2023-03-26T17:52:04;101017.81;;;6.89;100.00
69153;BME280;56261;51.580;4.578;2023-03-26T17:54:50;101023.56;;;6.74;100.00
69153;BME280;56261;51.580;4.578;2023-03-26T17:57:22;101015.31;;;6.77;100.00
69153;BME280;56261;51.580;4.578;2023-03-26T17:59:54;101034.16;;;6.74;100.00
69153;BME280;56261;51.580;4.578;2023-03-26T18:02:30;101046.13;;;6.78;100.00
69153;BME280;56261;51.580;4.578;2023-03-26T18:04:58;101053.41;;;6.67;100.00
69153;BME280;56261;51.580;4.578;2023-03-26T18:18:17;101092.44;;;6.55;100.00
69153;BME280;56261;51.580;4.578;2023-03-26T18:20:45;101102.75;;;6.48;100.00
69153;BME280;56261;51.580;4.578;2023-03-26T18:23:25;101104.56;;;6.48;100.00
69153;BME280;56261;51.580;4.578;2023-03-26T18:25:58;101108.72;;;6.40;100.00
69153;BME280;56261;51.580;4.578;2023-03-26T18:28:40;101118.34;;;6.41;100.00
69153;BME280;56261;51.580;4.578;2023-03-26T18:31:18;101123.78;;;6.40;100.00